Time;durP1;ratioP1;P1;durP2;ratioP2;P2;SDS_P1;SDS_P2;PMS_P1;PMS_P2;Temp;Humidity;BMP_temperature;BMP_pressure;BME280_temperature;BME280_humidity;BME280_pressure;Samples;Min_cycle;Max_cycle;Signal;HPM_P1;HPM_P2
2021/11/26 00:01:09;;;;;;;;;;;;;;;11.13;100.00;100575.94;5053177;28;20376;-56
2021/11/26 00:03:34;;;;;;;;;;;;;;;10.64;100.00;100574.44;5053458;28;19924;-52
2021/11/26 00:06:00;;;;;;;;;;;;;;;10.98;100.00;100567.28;5053256;28;19927;-54
2021/11/26 00:08:25;;;;;;;;;;;;;;;11.07;100.00;100567.88;5052896;28;19924;-53
2021/11/26 00:10:51;;;;;;;;;;;;;;;10.90;100.00;100558.41;5085762;28;19924;-52
2021/11/26 00:13:16;;;;;;;;;;;;;;;10.76;100.00;100551.41;5053221;28;19928;-51
2021/11/26 00:15:42;;;;;;;;;;;;;;;10.90;100.00;100541.56;5053149;28;19935;-52
2021/11/26 00:18:11;;;;;;;;;;;;;;;10.56;100.00;100538.00;5084559;28;19917;-54
2021/11/26 00:20:38;;;;;;;;;;;;;;;10.51;100.00;100533.28;5052848;28;20003;-51
2021/11/26 00:23:06;;;;;;;;;;;;;;;10.79;100.00;100529.63;5051287;28;19923;-54
2021/11/26 00:25:32;;;;;;;;;;;;;;;10.45;100.00;100524.22;5052651;28;19917;-55
2021/11/26 00:27:57;;;;;;;;;;;;;;;10.60;100.00;100518.69;5052373;28;19913;-52
2021/11/26 00:30:23;;;;;;;;;;;;;;;10.60;100.00;100510.66;5053213;28;19947;-53
2021/11/26 00:32:48;;;;;;;;;;;;;;;10.60;100.00;100509.81;5052826;28;19917;-49
2021/11/26 00:35:14;;;;;;;;;;;;;;;10.37;100.00;100510.97;5052350;28;20369;-53
2021/11/26 00:37:39;;;;;;;;;;;;;;;10.35;100.00;100513.03;5052769;28;20007;-51
2021/11/26 00:40:05;;;;;;;;;;;;;;;10.55;100.00;100501.59;5052514;28;20407;-51
2021/11/26 00:42:30;;;;;;;;;;;;;;;10.79;100.00;100492.16;5067970;28;19921;-53
2021/11/26 00:44:56;;;;;;;;;;;;;;;10.67;100.00;100489.28;5052532;28;20475;-51
2021/11/26 00:47:22;;;;;;;;;;;;;;;10.81;100.00;100491.94;5051759;28;20307;-50
2021/11/26 00:49:47;;;;;;;;;;;;;;;10.86;100.00;100478.78;5051648;28;19920;-52
2021/11/26 00:52:13;;;;;;;;;;;;;;;10.76;100.00;100476.53;5013786;28;1102362;-55
2021/11/26 00:54:38;;;;;;;;;;;;;;;10.81;100.00;100470.53;5053562;28;19995;-53
2021/11/26 00:57:07;;;;;;;;;;;;;;;11.05;100.00;100471.78;5052905;28;20284;-52
2021/11/26 00:59:34;;;;;;;;;;;;;;;11.19;100.00;100496.66;5051714;28;20388;-53
2021/11/26 01:01:59;;;;;;;;;;;;;;;11.28;100.00;100499.97;5053118;28;20016;-53
2021/11/26 01:04:24;;;;;;;;;;;;;;;11.23;100.00;100497.88;5053124;28;19917;-52
2021/11/26 01:06:50;;;;;;;;;;;;;;;11.07;100.00;100487.59;5085337;28;19920;-53
2021/11/26 01:09:15;;;;;;;;;;;;;;;10.96;100.00;100481.88;5085597;28;19927;-59
2021/11/26 01:11:41;;;;;;;;;;;;;;;11.39;100.00;100474.41;5054173;28;19916;-56
2021/11/26 01:14:06;;;;;;;;;;;;;;;11.52;100.00;100474.34;5086242;28;20411;-55
2021/11/26 01:16:31;;;;;;;;;;;;;;;11.59;100.00;100455.59;5052961;28;20340;-55
2021/11/26 01:18:57;;;;;;;;;;;;;;;11.47;100.00;100450.06;5053055;28;20344;-49
2021/11/26 01:21:22;;;;;;;;;;;;;;;11.30;100.00;100441.66;5052771;28;19991;-51
2021/11/26 01:23:47;;;;;;;;;;;;;;;11.41;100.00;100435.66;5052631;28;19916;-54
2021/11/26 01:26:13;;;;;;;;;;;;;;;11.22;100.00;100450.75;5052783;28;19970;-51
2021/11/26 01:28:38;;;;;;;;;;;;;;;10.95;100.00;100437.41;5052986;28;19917;-53
2021/11/26 01:31:03;;;;;;;;;;;;;;;11.04;100.00;100430.81;5085310;28;20019;-57
2021/11/26 01:33:29;;;;;;;;;;;;;;;10.58;100.00;100428.97;5053912;28;19927;-56
2021/11/26 01:35:55;;;;;;;;;;;;;;;10.47;100.00;100427.75;5056567;28;19928;-50
2021/11/26 01:38:21;;;;;;;;;;;;;;;10.80;100.00;100415.41;5056531;28;20021;-52
2021/11/26 01:40:47;;;;;;;;;;;;;;;10.84;100.00;100411.28;5089672;28;20035;-49
2021/11/26 01:43:14;;;;;;;;;;;;;;;10.46;100.00;100408.22;5056120;28;20011;-51
2021/11/26 01:46:08;;;;;;;;;;;;;;;10.41;100.00;100399.16;5056160;28;19917;-53
2021/11/26 01:48:34;;;;;;;;;;;;;;;10.55;100.00;100395.47;5055179;28;19917;-52
2021/11/26 01:51:00;;;;;;;;;;;;;;;10.56;100.00;100397.13;5056043;28;20084;-49
2021/11/26 01:53:25;;;;;;;;;;;;;;;10.52;100.00;100390.53;5055668;28;20055;-49
2021/11/26 01:55:51;;;;;;;;;;;;;;;10.72;100.00;100389.69;5055897;28;20019;-52
2021/11/26 01:58:17;;;;;;;;;;;;;;;10.39;100.00;100386.00;5055381;28;19916;-51
2021/11/26 02:00:43;;;;;;;;;;;;;;;10.49;100.00;100395.47;5056105;28;20333;-49
2021/11/26 02:03:09;;;;;;;;;;;;;;;10.36;100.00;100389.03;5055705;28;20402;-50
2021/11/26 02:05:34;;;;;;;;;;;;;;;10.94;100.00;100390.28;5055067;28;19953;-51
2021/11/26 02:08:00;;;;;;;;;;;;;;;10.98;100.00;100390.69;5055629;28;19917;-50
2021/11/26 02:10:25;;;;;;;;;;;;;;;10.74;100.00;100379.63;5055614;28;19960;-51
2021/11/26 02:12:52;;;;;;;;;;;;;;;10.69;100.00;100369.53;5055435;28;19974;-55
2021/11/26 02:15:19;;;;;;;;;;;;;;;11.12;100.00;100370.06;5055449;28;19943;-51
2021/11/26 02:17:44;;;;;;;;;;;;;;;10.87;100.00;100360.06;5056055;28;19956;-50
2021/11/26 02:20:13;;;;;;;;;;;;;;;10.95;100.00;100351.78;5055691;28;19943;-51
2021/11/26 02:22:38;;;;;;;;;;;;;;;10.76;100.00;100348.94;5055394;28;20365;-55
2021/11/26 02:25:06;;;;;;;;;;;;;;;10.74;100.00;100340.31;5056137;28;19970;-49
2021/11/26 02:27:32;;;;;;;;;;;;;;;10.17;100.00;100330.06;5055116;28;19912;-53
2021/11/26 02:29:57;;;;;;;;;;;;;;;10.79;100.00;100331.69;5055622;28;19943;-55
2021/11/26 02:32:24;;;;;;;;;;;;;;;10.96;100.00;100310.63;5070872;28;19921;-54
2021/11/26 02:34:51;;;;;;;;;;;;;;;10.91;100.00;100310.44;5055034;28;19917;-52
2021/11/26 02:37:17;;;;;;;;;;;;;;;11.10;100.00;100300.69;5056137;28;19924;-54
2021/11/26 02:39:42;;;;;;;;;;;;;;;10.99;100.00;100294.16;5055771;28;20015;-53
2021/11/26 02:42:08;;;;;;;;;;;;;;;10.89;100.00;100293.78;5055297;28;19920;-48
2021/11/26 02:44:33;;;;;;;;;;;;;;;11.17;100.00;100288.09;5086874;28;20280;-51
2021/11/26 02:46:58;;;;;;;;;;;;;;;10.92;100.00;100282.66;5054541;28;19978;-51
2021/11/26 02:49:24;;;;;;;;;;;;;;;10.50;100.00;100283.00;5054929;28;19921;-52
2021/11/26 02:51:49;;;;;;;;;;;;;;;10.73;100.00;100281.69;5055141;28;19921;-51
2021/11/26 02:54:14;;;;;;;;;;;;;;;10.44;100.00;100273.94;5055142;28;20019;-55
2021/11/26 02:56:40;;;;;;;;;;;;;;;10.17;100.00;100275.78;5054855;28;19923;-55
2021/11/26 02:59:05;;;;;;;;;;;;;;;10.33;100.00;100271.84;5054542;28;20291;-55
2021/11/26 03:01:31;;;;;;;;;;;;;;;10.04;100.00;100276.63;5069981;28;20306;-53
2021/11/26 03:03:56;;;;;;;;;;;;;;;10.56;100.00;100267.94;5054556;28;19920;-51
2021/11/26 03:06:22;;;;;;;;;;;;;;;10.11;100.00;100266.72;5054616;28;19921;-51
2021/11/26 03:08:47;;;;;;;;;;;;;;;9.72;100.00;100247.03;5054330;28;20008;-53
2021/11/26 03:11:12;;;;;;;;;;;;;;;10.10;100.00;100254.41;5054506;28;20376;-51
2021/11/26 03:13:38;;;;;;;;;;;;;;;10.32;100.00;100238.16;5054467;28;20283;-50
2021/11/26 03:16:03;;;;;;;;;;;;;;;10.21;100.00;100242.28;5054305;28;19921;-51
2021/11/26 03:18:29;;;;;;;;;;;;;;;10.15;100.00;100227.06;5054917;28;20325;-53
2021/11/26 03:20:55;;;;;;;;;;;;;;;10.31;100.00;100233.81;5086721;28;20289;-54
2021/11/26 03:23:21;;;;;;;;;;;;;;;10.34;100.00;100236.06;5054302;28;19917;-51
2021/11/26 03:25:47;;;;;;;;;;;;;;;10.53;100.00;100228.25;5053082;28;19921;-50
2021/11/26 03:28:13;;;;;;;;;;;;;;;10.63;100.00;100235.84;5070514;28;19924;-54
2021/11/26 03:30:39;;;;;;;;;;;;;;;10.24;100.00;100225.81;5054237;28;19923;-50
2021/11/26 03:33:04;;;;;;;;;;;;;;;10.28;100.00;100224.41;5086800;28;20019;-52
2021/11/26 03:35:30;;;;;;;;;;;;;;;10.31;100.00;100209.78;5052917;28;20306;-50
2021/11/26 03:37:55;;;;;;;;;;;;;;;10.46;100.00;100207.72;5086350;28;19942;-54
2021/11/26 03:40:21;;;;;;;;;;;;;;;10.99;100.00;100197.03;5053713;28;19921;-51
2021/11/26 03:42:47;;;;;;;;;;;;;;;10.66;100.00;100193.47;5053773;28;19920;-52
2021/11/26 03:45:13;;;;;;;;;;;;;;;10.68;100.00;100185.22;5054045;28;20019;-51
2021/11/26 03:47:39;;;;;;;;;;;;;;;11.17;100.00;100174.88;5052805;28;19970;-55
2021/11/26 03:50:06;;;;;;;;;;;;;;;10.86;100.00;100173.84;5053427;28;19926;-53
2021/11/26 03:52:31;;;;;;;;;;;;;;;10.88;100.00;100164.53;5053578;28;19920;-51
2021/11/26 03:54:56;;;;;;;;;;;;;;;10.97;100.00;100165.13;5085752;28;19920;-53
2021/11/26 03:57:22;;;;;;;;;;;;;;;10.39;100.00;100156.09;5053472;28;19920;-50
2021/11/26 03:59:47;;;;;;;;;;;;;;;10.89;100.00;100152.81;5053934;28;20008;-51
2021/11/26 04:02:13;;;;;;;;;;;;;;;10.98;100.00;100149.91;5053866;28;20415;-54
2021/11/26 04:04:38;;;;;;;;;;;;;;;10.70;100.00;100143.88;5054014;28;19921;-49
2021/11/26 04:07:04;;;;;;;;;;;;;;;10.41;100.00;100140.72;5053824;28;19916;-55
2021/11/26 04:09:29;;;;;;;;;;;;;;;10.36;100.00;100132.44;5085611;28;19916;-52
2021/11/26 04:11:55;;;;;;;;;;;;;;;10.56;100.00;100126.22;5052828;28;19917;-50
2021/11/26 04:14:20;;;;;;;;;;;;;;;10.73;100.00;100116.69;5053345;28;19917;-54
2021/11/26 04:16:47;;;;;;;;;;;;;;;10.76;100.00;100118.94;5086425;28;19927;-53
2021/11/26 04:19:13;;;;;;;;;;;;;;;10.55;100.00;100108.56;5084807;28;19917;-49
2021/11/26 04:21:38;;;;;;;;;;;;;;;10.57;100.00;100098.47;5068919;28;19928;-51
2021/11/26 04:24:04;;;;;;;;;;;;;;;10.29;100.00;100096.91;5085373;28;19956;-50
2021/11/26 04:26:30;;;;;;;;;;;;;;;10.14;100.00;100100.66;5053143;28;19967;-51
2021/11/26 04:28:55;;;;;;;;;;;;;;;10.18;100.00;100091.22;5085650;28;19924;-54
2021/11/26 04:31:21;;;;;;;;;;;;;;;10.36;100.00;100092.34;5053060;28;20266;-55
2021/11/26 04:33:46;;;;;;;;;;;;;;;10.61;100.00;100086.34;5053271;28;20360;-54
2021/11/26 04:36:12;;;;;;;;;;;;;;;10.38;100.00;100087.66;5053118;28;19949;-54
2021/11/26 04:38:37;;;;;;;;;;;;;;;9.95;100.00;100085.53;5053120;28;19921;-51
2021/11/26 04:41:03;;;;;;;;;;;;;;;10.29;100.00;100072.88;5085342;28;19923;-49
2021/11/26 04:43:28;;;;;;;;;;;;;;;10.52;100.00;100069.72;5085860;28;19974;-55
2021/11/26 04:45:53;;;;;;;;;;;;;;;10.63;100.00;100068.22;5085598;28;20289;-55
2021/11/26 04:48:19;;;;;;;;;;;;;;;10.27;100.00;100056.22;5053375;28;19920;-55
2021/11/26 04:50:45;;;;;;;;;;;;;;;10.07;100.00;100056.31;5053684;28;20218;-54
2021/11/26 04:53:10;;;;;;;;;;;;;;;9.98;100.00;100055.72;5053582;28;20372;-53
2021/11/26 04:55:36;;;;;;;;;;;;;;;10.30;100.00;100042.44;5085388;28;20405;-51
2021/11/26 04:58:01;;;;;;;;;;;;;;;10.16;100.00;100034.50;5053261;28;19920;-55
2021/11/26 05:00:26;;;;;;;;;;;;;;;9.98;100.00;100034.34;5053243;28;19932;-52
2021/11/26 05:02:52;;;;;;;;;;;;;;;9.96;100.00;100029.22;5053258;28;19996;-53
2021/11/26 05:05:17;;;;;;;;;;;;;;;9.76;100.00;100029.28;5068648;28;19913;-53
2021/11/26 05:07:43;;;;;;;;;;;;;;;9.78;100.00;100021.88;5053373;28;19920;-52
2021/11/26 05:10:09;;;;;;;;;;;;;;;9.63;100.00;100010.63;5056512;28;19975;-50
2021/11/26 05:12:48;;;;;;;;;;;;;;;9.86;100.00;100005.63;5056624;28;20390;-47
2021/11/26 05:15:15;;;;;;;;;;;;;;;9.66;100.00;100002.19;5056996;28;19916;-53
2021/11/26 05:17:40;;;;;;;;;;;;;;;10.00;100.00;100001.03;5056690;28;20011;-54
2021/11/26 05:20:06;;;;;;;;;;;;;;;10.15;100.00;100000.78;5056520;28;20399;-53
2021/11/26 05:22:31;;;;;;;;;;;;;;;10.35;100.00;99993.69;5056595;28;20407;-51
2021/11/26 05:24:56;;;;;;;;;;;;;;;10.18;100.00;99989.69;5072126;28;19928;-50
2021/11/26 05:27:22;;;;;;;;;;;;;;;9.99;100.00;99977.22;5056397;28;20344;-49
2021/11/26 05:29:47;;;;;;;;;;;;;;;10.30;100.00;99984.47;5089106;28;19928;-51
2021/11/26 05:32:13;;;;;;;;;;;;;;;10.19;100.00;99975.28;5055331;28;19917;-52
2021/11/26 05:34:38;;;;;;;;;;;;;;;10.21;100.00;99966.22;5055970;28;19920;-51
2021/11/26 05:37:04;;;;;;;;;;;;;;;10.31;100.00;99962.06;5056334;28;19947;-52
2021/11/26 05:39:29;;;;;;;;;;;;;;;10.26;100.00;99950.38;5056439;28;19927;-51
2021/11/26 05:41:54;;;;;;;;;;;;;;;10.17;100.00;99958.66;5054961;28;20280;-55
2021/11/26 05:44:20;;;;;;;;;;;;;;;10.01;100.00;99951.13;5072114;28;19955;-54
2021/11/26 05:46:45;;;;;;;;;;;;;;;10.08;100.00;99937.75;5056635;28;19927;-52
2021/11/26 05:49:10;;;;;;;;;;;;;;;9.81;100.00;99941.34;5054673;28;20011;-51
2021/11/26 05:51:36;;;;;;;;;;;;;;;10.08;100.00;99935.88;5056047;28;20356;-51
2021/11/26 05:54:01;;;;;;;;;;;;;;;9.93;100.00;99927.34;5056171;28;20007;-52
2021/11/26 05:56:26;;;;;;;;;;;;;;;9.96;100.00;99926.91;5056937;28;20332;-50
2021/11/26 05:58:52;;;;;;;;;;;;;;;9.80;100.00;99925.53;5056118;28;19959;-50
2021/11/26 06:01:17;;;;;;;;;;;;;;;9.90;100.00;99929.38;5055680;28;20286;-50
2021/11/26 06:03:42;;;;;;;;;;;;;;;9.94;100.00;99918.31;5056348;28;20394;-49
2021/11/26 06:06:08;;;;;;;;;;;;;;;9.79;100.00;99914.03;5055669;28;19921;-52
2021/11/26 06:08:33;;;;;;;;;;;;;;;9.73;100.00;99912.25;5055902;28;19998;-49
2021/11/26 06:10:59;;;;;;;;;;;;;;;9.86;100.00;99906.81;5055522;28;19917;-48
2021/11/26 06:13:24;;;;;;;;;;;;;;;9.81;100.00;99892.47;5055518;28;19978;-49
2021/11/26 06:15:50;;;;;;;;;;;;;;;10.29;100.00;99883.97;5056019;28;19921;-51
2021/11/26 06:18:15;;;;;;;;;;;;;;;10.07;100.00;99880.81;5055473;28;20364;-51
2021/11/26 06:20:40;;;;;;;;;;;;;;;9.88;100.00;99877.22;5055962;28;19959;-55
2021/11/26 06:23:06;;;;;;;;;;;;;;;9.52;100.00;99873.28;5055325;28;19928;-55
2021/11/26 06:25:31;;;;;;;;;;;;;;;9.84;100.00;99866.16;5087778;28;19927;-53
2021/11/26 06:27:56;;;;;;;;;;;;;;;9.55;100.00;99867.53;5087929;28;19928;-51
2021/11/26 06:30:23;;;;;;;;;;;;;;;9.68;100.00;99853.28;5087184;28;19924;-52
2021/11/26 06:32:49;;;;;;;;;;;;;;;9.87;100.00;99855.03;5087307;28;19927;-52
2021/11/26 06:35:16;;;;;;;;;;;;;;;9.84;100.00;99847.47;5054093;28;19966;-51
2021/11/26 06:37:41;;;;;;;;;;;;;;;9.63;100.00;99837.09;5054704;28;20361;-54
2021/11/26 06:40:07;;;;;;;;;;;;;;;9.96;100.00;99839.56;5055185;28;19947;-52
2021/11/26 06:42:33;;;;;;;;;;;;;;;9.98;100.00;99837.50;5054832;28;19940;-54
2021/11/26 06:44:58;;;;;;;;;;;;;;;9.91;100.00;99828.72;5054993;28;19964;-55
2021/11/26 06:47:24;;;;;;;;;;;;;;;9.60;100.00;99819.69;5054942;28;19967;-54
2021/11/26 06:49:49;;;;;;;;;;;;;;;9.78;100.00;99824.28;5054553;28;19921;-55
2021/11/26 06:52:15;;;;;;;;;;;;;;;9.56;100.00;99813.13;5053298;28;19920;-55
2021/11/26 06:54:41;;;;;;;;;;;;;;;9.67;100.00;99814.28;5053265;28;19924;-53
2021/11/26 06:57:06;;;;;;;;;;;;;;;9.51;100.00;99808.44;5055400;28;19928;-53
2021/11/26 06:59:31;;;;;;;;;;;;;;;9.59;100.00;99797.50;5053895;28;19924;-51
2021/11/26 07:01:57;;;;;;;;;;;;;;;9.34;100.00;99808.09;5053403;28;20294;-55
2021/11/26 07:04:23;;;;;;;;;;;;;;;9.40;100.00;99795.75;5086590;28;20337;-54
2021/11/26 07:06:48;;;;;;;;;;;;;;;9.70;100.00;99798.66;5054094;28;19927;-55
2021/11/26 07:09:14;;;;;;;;;;;;;;;9.38;100.00;99795.16;5054166;28;20365;-54
2021/11/26 07:11:39;;;;;;;;;;;;;;;9.25;100.00;99788.03;5054257;28;19917;-55
2021/11/26 07:14:05;;;;;;;;;;;;;;;9.08;100.00;99787.69;5053827;28;19970;-52
2021/11/26 07:16:30;;;;;;;;;;;;;;;9.58;100.00;99784.38;5086416;28;19920;-54
2021/11/26 07:18:56;;;;;;;;;;;;;;;9.49;100.00;99778.47;5054473;28;19935;-58
2021/11/26 07:21:21;;;;;;;;;;;;;;;9.53;100.00;99778.84;5054720;28;20350;-53
2021/11/26 07:23:47;;;;;;;;;;;;;;;9.46;100.00;99784.25;5053799;28;19954;-53
2021/11/26 07:26:12;;;;;;;;;;;;;;;9.52;100.00;99777.22;5053670;28;19963;-55
2021/11/26 07:28:38;;;;;;;;;;;;;;;9.46;100.00;99778.91;5054013;28;19916;-53
2021/11/26 07:31:03;;;;;;;;;;;;;;;9.46;100.00;99776.25;5085411;28;19916;-53
2021/11/26 07:33:28;;;;;;;;;;;;;;;9.43;100.00;99769.47;5053536;28;20431;-52
2021/11/26 07:35:55;;;;;;;;;;;;;;;9.32;100.00;99757.63;5053886;28;19916;-55
2021/11/26 07:38:20;;;;;;;;;;;;;;;9.16;100.00;99763.44;5053577;28;19917;-50
2021/11/26 07:40:46;;;;;;;;;;;;;;;9.22;100.00;99746.56;5069182;28;19924;-53
2021/11/26 07:43:11;;;;;;;;;;;;;;;9.13;100.00;99754.03;5086249;28;19917;-50
2021/11/26 07:45:36;;;;;;;;;;;;;;;9.37;100.00;99750.81;5053438;28;19921;-51
2021/11/26 07:48:02;;;;;;;;;;;;;;;9.47;100.00;99749.31;5086528;28;20368;-51
2021/11/26 07:50:28;;;;;;;;;;;;;;;9.42;100.00;99740.31;5085721;28;19916;-53
2021/11/26 07:52:54;;;;;;;;;;;;;;;9.38;100.00;99739.94;5053248;28;19964;-55
2021/11/26 07:55:19;;;;;;;;;;;;;;;9.22;100.00;99730.56;5053059;28;19966;-50
2021/11/26 07:57:45;;;;;;;;;;;;;;;9.20;100.00;99727.31;5053533;28;19917;-50
2021/11/26 08:00:11;;;;;;;;;;;;;;;9.58;100.00;99718.44;5053186;28;20349;-51
2021/11/26 08:02:39;;;;;;;;;;;;;;;9.26;100.00;99723.81;5084290;28;19960;-53
2021/11/26 08:05:05;;;;;;;;;;;;;;;9.47;100.00;99711.97;5053203;28;20355;-53
2021/11/26 08:07:31;;;;;;;;;;;;;;;9.28;100.00;99713.72;5053422;28;19913;-50
2021/11/26 08:09:56;;;;;;;;;;;;;;;9.04;100.00;99700.13;5052271;28;19948;-51
2021/11/26 08:12:22;;;;;;;;;;;;;;;8.86;100.00;99694.66;5054082;28;19928;-51
2021/11/26 08:14:50;;;;;;;;;;;;;;;9.27;100.00;99679.25;5085554;28;19917;-54
2021/11/26 08:17:16;;;;;;;;;;;;;;;9.01;100.00;99676.53;5053397;28;19925;-49
2021/11/26 08:19:41;;;;;;;;;;;;;;;9.00;100.00;99674.91;5068580;28;20372;-49
2021/11/26 08:22:06;;;;;;;;;;;;;;;8.84;100.00;99691.38;5085088;28;19978;-54
2021/11/26 08:24:32;;;;;;;;;;;;;;;9.08;100.00;99665.81;5053324;28;19913;-50
2021/11/26 08:26:57;;;;;;;;;;;;;;;9.07;100.00;99671.38;5053634;28;20015;-54
2021/11/26 08:29:22;;;;;;;;;;;;;;;9.05;100.00;99666.25;5053238;28;19996;-52
2021/11/26 08:31:48;;;;;;;;;;;;;;;9.09;100.00;99661.31;5052121;28;19921;-56
2021/11/26 08:34:13;;;;;;;;;;;;;;;9.41;100.00;99651.44;5053130;28;19919;-52
2021/11/26 08:36:39;;;;;;;;;;;;;;;9.45;100.00;99655.31;5053141;28;19932;-56
2021/11/26 08:39:05;;;;;;;;;;;;;;;9.61;100.00;99643.28;5053315;28;20392;-52
2021/11/26 08:41:30;;;;;;;;;;;;;;;9.47;100.00;99639.91;5085430;28;19916;-56
2021/11/26 08:43:56;;;;;;;;;;;;;;;9.00;100.00;99642.91;5087362;28;20011;-53
2021/11/26 08:46:22;;;;;;;;;;;;;;;9.35;100.00;99635.47;5057096;28;19948;-55
2021/11/26 08:48:47;;;;;;;;;;;;;;;9.15;100.00;99617.75;5057665;28;19921;-51
2021/11/26 08:51:13;;;;;;;;;;;;;;;9.35;100.00;99616.81;5055818;28;19923;-53
2021/11/26 08:53:44;;;;;;;;;;;;;;;9.22;100.00;99613.19;5056820;28;20018;-53
2021/11/26 08:56:10;;;;;;;;;;;;;;;9.29;100.00;99608.66;5057158;28;19916;-54
2021/11/26 08:58:36;;;;;;;;;;;;;;;9.13;100.00;99611.84;5056082;28;20449;-50
2021/11/26 09:01:03;;;;;;;;;;;;;;;9.08;100.00;99606.34;5057011;28;19960;-50
2021/11/26 09:03:28;;;;;;;;;;;;;;;8.88;100.00;99599.28;5055832;28;19917;-50
2021/11/26 09:05:53;;;;;;;;;;;;;;;9.02;100.00;99594.69;5072824;28;19928;-53
2021/11/26 09:08:19;;;;;;;;;;;;;;;9.22;100.00;99583.84;5056771;28;19913;-54
2021/11/26 09:10:45;;;;;;;;;;;;;;;9.29;100.00;99581.97;5056401;28;19944;-52
2021/11/26 09:13:11;;;;;;;;;;;;;;;9.00;100.00;99573.56;5056761;28;19932;-55
2021/11/26 09:15:37;;;;;;;;;;;;;;;9.32;100.00;99559.34;5056748;28;19916;-52
2021/11/26 09:18:02;;;;;;;;;;;;;;;9.01;100.00;99572.53;5057082;28;19921;-54
2021/11/26 09:20:28;;;;;;;;;;;;;;;9.19;100.00;99554.94;5056814;28;19920;-52
2021/11/26 09:22:54;;;;;;;;;;;;;;;9.28;100.00;99564.31;5072362;28;19940;-52
2021/11/26 09:25:19;;;;;;;;;;;;;;;9.49;100.00;99559.63;5057213;28;19916;-49
2021/11/26 09:27:44;;;;;;;;;;;;;;;9.92;100.00;99546.44;5056124;28;19970;-50
2021/11/26 09:30:12;;;;;;;;;;;;;;;9.56;100.00;99546.19;5056096;28;19993;-51
2021/11/26 09:32:38;;;;;;;;;;;;;;;9.36;100.00;99541.91;5089188;28;19919;-54
2021/11/26 09:35:04;;;;;;;;;;;;;;;9.80;100.00;99530.34;5055932;28;19917;-52
2021/11/26 09:37:29;;;;;;;;;;;;;;;9.76;100.00;99516.66;5055994;28;19932;-49
2021/11/26 09:39:55;;;;;;;;;;;;;;;9.73;100.00;99509.09;5056304;28;19979;-50
2021/11/26 09:42:20;;;;;;;;;;;;;;;9.73;100.00;99501.88;5055534;28;19977;-51
2021/11/26 09:44:45;;;;;;;;;;;;;;;10.27;100.00;99493.22;5056045;28;19963;-53
2021/11/26 09:47:11;;;;;;;;;;;;;;;10.05;100.00;99492.88;5088362;28;20331;-50
2021/11/26 09:49:37;;;;;;;;;;;;;;;10.15;100.00;99493.19;5056689;28;19990;-50
2021/11/26 09:52:02;;;;;;;;;;;;;;;10.28;100.00;99491.34;5056119;28;19944;-55
2021/11/26 09:54:36;;;;;;;;;;;;;;;10.36;100.00;99483.00;5055571;28;19921;-54
2021/11/26 09:57:01;;;;;;;;;;;;;;;10.86;100.00;99481.09;5054867;28;19923;-50
2021/11/26 09:59:26;;;;;;;;;;;;;;;10.71;100.00;99474.31;5054318;28;19929;-51
2021/11/26 10:01:52;;;;;;;;;;;;;;;10.69;100.00;99489.78;5088555;28;20284;-51
2021/11/26 10:04:19;;;;;;;;;;;;;;;10.12;100.00;99469.56;5071244;28;20416;-54
2021/11/26 10:06:45;;;;;;;;;;;;;;;10.14;100.00;99447.97;5054569;28;20012;-52
2021/11/26 10:09:12;;;;;;;;;;;;;;;10.21;100.00;99437.19;5055890;28;20003;-52
2021/11/26 10:11:48;;;;;;;;;;;;;;;10.10;100.00;99430.78;5055481;28;19917;-53
2021/11/26 10:14:16;;;;;;;;;;;;;;;9.89;100.00;99433.69;5087709;28;20023;-56
2021/11/26 10:16:42;;;;;;;;;;;;;;;9.82;100.00;99408.94;5055346;28;20345;-53
2021/11/26 10:19:08;;;;;;;;;;;;;;;9.74;100.00;99411.94;5054890;28;19917;-55
2021/11/26 10:21:33;;;;;;;;;;;;;;;9.61;100.00;99421.72;5087628;28;19967;-56
2021/11/26 10:23:59;;;;;;;;;;;;;;;10.08;100.00;99401.59;5055373;28;19912;-52
2021/11/26 10:26:25;;;;;;;;;;;;;;;10.05;100.00;99380.69;5055160;28;19921;-55
2021/11/26 10:28:51;;;;;;;;;;;;;;;10.23;100.00;99376.34;5055199;28;20331;-52
2021/11/26 10:31:21;;;;;;;;;;;;;;;9.92;100.00;99403.06;5055192;28;19920;-49
2021/11/26 10:33:46;;;;;;;;;;;;;;;10.06;100.00;99371.63;5055010;28;20322;-53
2021/11/26 10:36:12;;;;;;;;;;;;;;;10.30;100.00;99356.50;5087764;28;19959;-52
2021/11/26 10:38:37;;;;;;;;;;;;;;;10.00;100.00;99367.22;5054877;28;19973;-55
2021/11/26 10:41:05;;;;;;;;;;;;;;;10.45;100.00;99353.41;5055079;28;20357;-53
2021/11/26 10:59:30;;;;;;;;;;;;;;;11.34;100.00;99283.84;5032124;28;19956;-53
2021/11/26 11:01:57;;;;;;;;;;;;;;;11.41;100.00;99297.09;5051226;28;20346;-50
2021/11/26 11:04:23;;;;;;;;;;;;;;;11.12;100.00;99281.03;5054544;28;19917;-55
2021/11/26 11:07:05;;;;;;;;;;;;;;;11.43;100.00;99270.91;5053605;28;20431;-54
2021/11/26 11:09:41;;;;;;;;;;;;;;;10.35;100.00;99291.66;5086803;28;19977;-54
2021/11/26 11:12:06;;;;;;;;;;;;;;;10.58;100.00;99252.63;5054714;28;19921;-56
2021/11/26 11:14:32;;;;;;;;;;;;;;;11.19;100.00;99244.22;5054432;28;19926;-56
2021/11/26 11:16:57;;;;;;;;;;;;;;;11.21;100.00;99236.78;5054164;28;19921;-51
2021/11/26 11:19:24;;;;;;;;;;;;;;;11.26;100.00;99220.81;5055001;28;20400;-54
2021/11/26 11:21:50;;;;;;;;;;;;;;;10.84;100.00;99199.66;5055410;28;19923;-61
2021/11/26 11:24:16;;;;;;;;;;;;;;;11.27;100.00;99203.69;5054785;28;20237;-52
2021/11/26 11:26:45;;;;;;;;;;;;;;;10.58;100.00;99196.50;5053913;28;19923;-56
2021/11/26 11:29:22;;;;;;;;;;;;;;;10.63;100.00;99187.78;5054473;28;19997;-56
2021/11/26 11:31:47;;;;;;;;;;;;;;;10.47;100.00;99201.63;5054463;28;19924;-55
2021/11/26 11:34:14;;;;;;;;;;;;;;;10.72;100.00;99165.78;5052675;28;19921;-53
2021/11/26 11:36:40;;;;;;;;;;;;;;;10.19;100.00;99195.13;5054179;28;20015;-54
2021/11/26 11:39:06;;;;;;;;;;;;;;;10.26;100.00;99159.47;5053745;28;19927;-55
2021/11/26 11:41:48;;;;;;;;;;;;;;;10.36;100.00;99162.34;5053898;28;20233;-55
2021/11/26 11:44:25;;;;;;;;;;;;;;;10.21;100.00;99141.44;5054004;28;19916;-55
2021/11/26 11:46:51;;;;;;;;;;;;;;;10.22;100.00;99163.66;5054422;28;19924;-55
2021/11/26 11:49:42;;;;;;;;;;;;;;;10.20;100.00;99137.16;5053685;28;19920;-55
2021/11/26 11:52:10;;;;;;;;;;;;;;;10.18;100.00;99118.72;5052657;28;19956;-52
2021/11/26 11:54:45;;;;;;;;;;;;;;;10.11;100.00;99115.34;5053641;28;19916;-51
2021/11/26 11:57:24;;;;;;;;;;;;;;;9.66;100.00;99126.63;5086644;28;19952;-56
2021/11/26 11:59:50;;;;;;;;;;;;;;;9.53;100.00;99108.97;5054531;28;20013;-53
2021/11/26 12:02:25;;;;;;;;;;;;;;;9.47;100.00;99110.72;5054836;28;20288;-55
2021/11/26 12:04:50;;;;;;;;;;;;;;;9.20;100.00;99103.13;5054659;28;19916;-54
2021/11/26 12:07:22;;;;;;;;;;;;;;;9.72;100.00;99080.34;5054480;28;19977;-55
2021/11/26 12:09:47;;;;;;;;;;;;;;;9.71;100.00;99076.03;5054998;28;20294;-53
2021/11/26 12:12:14;;;;;;;;;;;;;;;9.49;100.00;99065.94;5053811;28;20066;-54
2021/11/26 12:14:48;;;;;;;;;;;;;;;9.41;100.00;99050.25;5054388;28;19917;-53
2021/11/26 12:17:32;;;;;;;;;;;;;;;9.28;100.00;99046.78;5053836;28;19923;-54
2021/11/26 12:19:59;;;;;;;;;;;;;;;9.54;100.00;99047.38;5053719;28;19921;-51
2021/11/26 12:22:38;;;;;;;;;;;;;;;9.53;100.00;99024.41;5053534;28;19920;-50
2021/11/26 12:25:15;;;;;;;;;;;;;;;9.65;100.00;99019.06;5053209;28;19978;-53
2021/11/26 12:27:41;;;;;;;;;;;;;;;9.22;100.00;99010.34;5053600;28;20387;-57
2021/11/26 12:30:26;;;;;;;;;;;;;;;8.90;100.00;99029.34;5053150;28;19917;-54
2021/11/26 12:32:52;;;;;;;;;;;;;;;8.75;100.00;98995.91;5053520;28;19924;-55
2021/11/26 12:35:17;;;;;;;;;;;;;;;8.84;100.00;98988.41;5053625;28;19921;-56
2021/11/26 12:37:45;;;;;;;;;;;;;;;8.95;100.00;98976.13;5053203;28;20304;-55
2021/11/26 12:40:13;;;;;;;;;;;;;;;8.97;100.00;98968.72;5053316;28;20122;-49
2021/11/26 12:42:39;;;;;;;;;;;;;;;9.26;100.00;98962.69;5053010;28;19916;-53
2021/11/26 12:45:07;;;;;;;;;;;;;;;9.25;100.00;98961.91;5068221;28;20376;-52
2021/11/26 12:47:38;;;;;;;;;;;;;;;8.75;100.00;98950.59;5052960;28;19923;-51